Time;durP1;ratioP1;P1;durP2;ratioP2;P2;SDS_P1;SDS_P2;PMS_P1;PMS_P2;Temp;Humidity;BMP_temperature;BMP_pressure;BME280_temperature;BME280_humidity;BME280_pressure;Samples;Min_cycle;Max_cycle;Signal;HPM_P1;HPM_P2
2021/03/15 00:00:11;;;;;;;5.90;3.58;;;6.70;99.90;;;;;;6276035;22;19996;-74
2021/03/15 00:02:38;;;;;;;8.93;3.92;;;6.70;99.90;;;;;;6275769;22;20077;-74
2021/03/15 00:05:06;;;;;;;7.85;4.30;;;6.60;99.90;;;;;;6275426;22;20066;-75
2021/03/15 00:07:31;;;;;;;6.60;4.55;;;6.60;99.90;;;;;;6276216;22;20000;-74
2021/03/15 00:09:57;;;;;;;8.18;4.90;;;6.50;99.90;;;;;;6276243;22;20336;-74
2021/03/15 00:12:23;;;;;;;9.48;5.57;;;6.50;99.90;;;;;;6276013;22;20384;-75
2021/03/15 00:14:49;;;;;;;7.05;4.68;;;6.40;99.90;;;;;;6248456;22;20106;-75
2021/03/15 00:17:14;;;;;;;9.05;4.70;;;6.30;99.90;;;;;;6275798;22;20477;-74
2021/03/15 00:19:40;;;;;;;6.47;4.30;;;6.20;99.90;;;;;;6275496;22;20000;-74
2021/03/15 00:22:06;;;;;;;5.38;3.70;;;6.20;99.90;;;;;;6275915;22;20083;-74
2021/03/15 00:24:31;;;;;;;4.35;3.75;;;6.20;99.90;;;;;;6275822;22;20035;-74
2021/03/15 00:26:57;;;;;;;6.68;4.38;;;6.20;99.90;;;;;;6275489;22;19999;-75
2021/03/15 00:29:23;;;;;;;7.07;4.07;;;6.10;99.90;;;;;;6275555;22;20000;-74
2021/03/15 00:31:49;;;;;;;9.18;4.38;;;6.10;99.90;;;;;;6275852;22;19996;-75
2021/03/15 00:34:15;;;;;;;11.52;4.47;;;6.10;99.90;;;;;;6275460;22;20011;-74
2021/03/15 00:36:42;;;;;;;6.30;4.45;;;6.10;99.90;;;;;;6275599;22;20000;-74
2021/03/15 00:39:08;;;;;;;8.48;4.68;;;6.10;99.90;;;;;;6274995;22;20018;-75
2021/03/15 00:41:34;;;;;;;6.28;4.18;;;6.00;99.90;;;;;;6275599;22;20003;-74
2021/03/15 00:44:00;;;;;;;7.28;4.25;;;5.90;99.90;;;;;;6275726;22;20026;-74
2021/03/15 00:46:25;;;;;;;8.63;4.63;;;5.90;99.90;;;;;;6275909;22;19992;-74
2021/03/15 00:48:51;;;;;;;5.75;4.28;;;5.90;99.90;;;;;;6274491;22;20077;-74
2021/03/15 00:51:17;;;;;;;8.23;4.18;;;5.90;99.90;;;;;;6276089;22;20012;-74
2021/03/15 00:53:42;;;;;;;7.95;4.13;;;5.90;99.90;;;;;;6275236;22;20000;-74
2021/03/15 00:56:08;;;;;;;10.75;4.75;;;5.90;99.90;;;;;;6275337;22;19999;-74
2021/03/15 00:58:34;;;;;;;6.00;3.60;;;5.90;99.90;;;;;;6274981;22;20014;-74
2021/03/15 01:01:00;;;;;;;7.95;3.95;;;5.80;99.90;;;;;;6275025;22;20023;-74
2021/03/15 01:03:26;;;;;;;8.18;4.30;;;5.70;99.90;;;;;;6275091;22;20023;-74
2021/03/15 01:05:53;;;;;;;6.45;4.13;;;5.70;99.90;;;;;;6275445;22;20012;-75
2021/03/15 01:08:19;;;;;;;6.55;3.83;;;5.70;99.90;;;;;;6275525;22;20000;-74
2021/03/15 01:10:47;;;;;;;4.68;3.75;;;5.70;99.90;;;;;;6275091;22;20065;-74
2021/03/15 01:13:13;;;;;;;8.20;4.22;;;5.60;99.90;;;;;;6274835;22;20054;-74
2021/03/15 01:15:40;;;;;;;5.70;3.40;;;5.60;99.90;;;;;;6274743;22;20067;-75
2021/03/15 01:18:06;;;;;;;4.85;3.28;;;5.50;99.90;;;;;;6275000;22;20054;-74
2021/03/15 01:20:32;;;;;;;4.45;3.58;;;5.50;99.90;;;;;;6275266;22;20414;-75
2021/03/15 01:22:59;;;;;;;4.20;3.17;;;5.60;99.90;;;;;;6275078;22;20007;-75
2021/03/15 01:25:37;;;;;;;4.85;3.40;;;5.60;99.90;;;;;;6274929;22;20069;-74
2021/03/15 01:28:07;;;;;;;5.18;3.60;;;5.60;99.90;;;;;;6275667;22;19995;-74
2021/03/15 01:30:34;;;;;;;5.25;3.47;;;5.50;99.90;;;;;;6275019;22;20093;-74
2021/03/15 01:33:00;;;;;;;4.82;3.55;;;5.50;99.90;;;;;;6274748;22;20426;-75
2021/03/15 01:35:26;;;;;;;4.15;3.15;;;5.50;99.90;;;;;;6274842;22;20045;-75
2021/03/15 01:37:52;;;;;;;7.03;3.85;;;5.50;99.90;;;;;;6274966;22;20049;-75
2021/03/15 01:40:20;;;;;;;5.47;2.92;;;5.50;99.90;;;;;;6275278;22;20010;-75
2021/03/15 01:42:46;;;;;;;4.90;3.38;;;5.40;99.90;;;;;;6274689;22;20004;-74
2021/03/15 01:45:12;;;;;;;5.22;3.58;;;5.40;99.90;;;;;;6274709;22;20091;-74
2021/03/15 01:47:42;;;;;;;3.35;3.05;;;5.40;99.90;;;;;;6274897;22;20004;-74
2021/03/15 01:50:10;;;;;;;6.95;3.25;;;5.40;99.90;;;;;;6274853;22;20011;-74
2021/03/15 01:52:38;;;;;;;4.05;3.40;;;5.40;99.90;;;;;;6274375;22;19996;-75
2021/03/15 01:55:05;;;;;;;3.80;3.20;;;5.40;99.90;;;;;;6274842;22;20031;-74
2021/03/15 01:57:32;;;;;;;5.57;3.38;;;5.30;99.90;;;;;;6275040;22;20002;-75
2021/03/15 01:59:58;;;;;;;5.72;3.78;;;5.30;99.90;;;;;;6275359;22;20321;-75
2021/03/15 02:02:25;;;;;;;5.65;3.40;;;5.40;99.90;;;;;;6275213;22;20011;-75
2021/03/15 02:04:52;;;;;;;5.22;3.58;;;5.40;99.90;;;;;;6275248;22;20075;-75
2021/03/15 02:07:18;;;;;;;5.55;3.38;;;5.40;99.90;;;;;;6274696;22;19996;-75
2021/03/15 02:09:44;;;;;;;5.25;3.78;;;5.30;99.90;;;;;;6275049;22;20066;-75
2021/03/15 02:12:12;;;;;;;3.60;3.00;;;5.30;99.90;;;;;;6275186;22;20364;-74
2021/03/15 02:15:01;;;;;;;5.28;3.60;;;5.30;99.90;;;;;;6274866;22;20007;-74
2021/03/15 02:17:36;;;;;;;5.00;3.58;;;5.20;99.90;;;;;;6203648;22;20064;-77
2021/03/15 02:20:39;;;;;;;5.15;3.53;;;5.10;99.90;;;;;;6274521;22;20007;-74
2021/03/15 02:23:33;;;;;;;5.57;3.65;;;5.00;99.90;;;;;;6275026;22;20006;-74
2021/03/15 02:26:10;;;;;;;5.50;3.20;;;4.90;99.90;;;;;;6219174;22;20392;-74
2021/03/15 02:29:11;;;;;;;4.72;3.35;;;4.90;99.90;;;;;;6274800;22;20410;-74
2021/03/15 02:32:06;;;;;;;4.93;3.78;;;4.80;99.90;;;;;;6275009;22;20004;-74
2021/03/15 02:34:31;;;;;;;5.97;3.42;;;4.60;99.90;;;;;;6247778;22;20433;-75
2021/03/15 02:36:59;;;;;;;6.05;3.15;;;4.60;99.90;;;;;;6274705;22;20004;-75
2021/03/15 02:39:32;;;;;;;4.65;3.38;;;4.60;99.90;;;;;;6275107;22;20011;-74
2021/03/15 02:42:02;;;;;;;6.50;3.47;;;4.70;99.90;;;;;;6276044;22;20003;-74
2021/03/15 02:44:32;;;;;;;4.43;3.60;;;4.70;99.90;;;;;;6276404;22;20046;-75
2021/03/15 02:46:59;;;;;;;7.50;3.50;;;4.80;99.90;;;;;;6249695;22;20008;-74
2021/03/15 02:49:27;;;;;;;4.97;2.85;;;4.70;99.90;;;;;;6276661;22;20122;-74
2021/03/15 02:51:56;;;;;;;4.20;3.28;;;4.80;99.90;;;;;;6276706;22;20004;-74
2021/03/15 02:54:23;;;;;;;5.93;3.78;;;4.80;99.90;;;;;;6249483;22;20011;-75
2021/03/15 02:56:50;;;;;;;5.68;4.22;;;4.80;99.90;;;;;;6275346;22;20003;-75
2021/03/15 02:59:18;;;;;;;5.57;3.95;;;4.90;99.90;;;;;;6276354;22;20008;-74
2021/03/15 03:01:45;;;;;;;7.80;5.75;;;4.90;99.90;;;;;;6276441;22;20011;-74
2021/03/15 03:04:12;;;;;;;5.38;4.18;;;4.90;99.90;;;;;;6276804;22;20004;-74
2021/03/15 03:06:40;;;;;;;5.70;4.80;;;5.00;99.90;;;;;;6276874;22;20477;-74
2021/03/15 03:09:09;;;;;;;5.05;4.10;;;5.00;99.90;;;;;;6276612;22;20012;-74
2021/03/15 03:11:37;;;;;;;5.60;3.50;;;5.00;99.90;;;;;;6276735;22;19996;-74
2021/03/15 03:14:05;;;;;;;5.20;3.63;;;4.90;99.90;;;;;;6276367;22;20071;-74
2021/03/15 03:16:35;;;;;;;6.22;3.45;;;4.90;99.90;;;;;;6276566;22;20405;-76
2021/03/15 03:19:02;;;;;;;9.15;3.60;;;4.80;99.90;;;;;;6276340;22;20011;-75
2021/03/15 03:21:29;;;;;;;5.47;3.90;;;4.80;99.90;;;;;;6276654;22;20445;-74
2021/03/15 03:23:58;;;;;;;3.80;3.20;;;4.70;99.90;;;;;;6276465;22;20306;-74
2021/03/15 03:26:25;;;;;;;5.28;3.80;;;4.60;99.90;;;;;;6276154;22;20456;-75
2021/03/15 03:28:55;;;;;;;5.93;3.50;;;4.50;99.90;;;;;;6275540;22;20697;-74
2021/03/15 03:31:25;;;;;;;4.30;3.22;;;4.40;99.90;;;;;;6275964;22;20007;-75
2021/03/15 03:33:51;;;;;;;4.43;3.47;;;4.40;99.90;;;;;;6276310;22;20004;-74
2021/03/15 03:36:17;;;;;;;6.43;4.22;;;4.40;99.90;;;;;;6276044;22;20432;-75
2021/03/15 03:38:44;;;;;;;5.10;3.58;;;4.40;99.90;;;;;;6275398;22;20492;-75
2021/03/15 03:41:10;;;;;;;4.97;3.60;;;4.50;99.90;;;;;;6276472;22;20122;-76
2021/03/15 03:43:37;;;;;;;7.88;4.13;;;4.50;99.90;;;;;;6276545;22;20375;-74
2021/03/15 03:46:04;;;;;;;9.60;4.38;;;4.60;99.90;;;;;;6276898;22;20004;-75
2021/03/15 03:48:31;;;;;;;6.20;4.20;;;4.60;99.90;;;;;;6276489;22;20054;-74
2021/03/15 03:50:57;;;;;;;8.60;4.43;;;4.50;99.90;;;;;;6276455;22;19996;-75
2021/03/15 03:53:29;;;;;;;8.25;4.38;;;4.50;99.90;;;;;;6275840;22;20039;-74
2021/03/15 03:56:24;;;;;;;6.95;4.38;;;4.50;99.90;;;;;;6276411;22;20129;-75
2021/03/15 03:58:53;;;;;;;4.88;4.00;;;4.50;99.90;;;;;;6255544;22;20046;-74
2021/03/15 04:01:26;;;;;;;7.15;4.18;;;4.40;99.90;;;;;;6275737;22;20022;-74
2021/03/15 04:03:54;;;;;;;5.70;4.05;;;4.20;99.90;;;;;;6276011;22;20007;-74
2021/03/15 04:06:24;;;;;;;6.25;4.00;;;4.20;99.90;;;;;;6276567;22;20011;-74
2021/03/15 04:09:09;;;;;;;5.53;3.80;;;4.10;99.90;;;;;;6275159;22;20011;-75
2021/03/15 04:11:35;;;;;;;8.48;3.95;;;4.10;99.90;;;;;;6275919;22;19996;-74
2021/03/15 04:14:03;;;;;;;6.55;3.75;;;4.10;99.90;;;;;;6276108;22;20010;-75
2021/03/15 04:16:32;;;;;;;5.15;3.88;;;4.10;99.90;;;;;;6275720;22;20003;-75
2021/03/15 04:19:02;;;;;;;11.32;3.97;;;4.10;99.90;;;;;;6275497;22;20341;-74
2021/03/15 04:21:30;;;;;;;5.90;4.03;;;4.10;99.90;;;;;;6275641;22;20000;-74
2021/03/15 04:23:56;;;;;;;5.97;3.40;;;4.10;99.90;;;;;;6276245;22;19999;-75
2021/03/15 04:26:24;;;;;;;6.65;3.95;;;4.10;99.90;;;;;;6276012;22;20321;-74
2021/03/15 04:28:52;;;;;;;13.88;3.78;;;4.10;99.90;;;;;;6275372;22;20049;-74
2021/03/15 04:31:19;;;;;;;6.43;4.00;;;4.10;99.90;;;;;;6275582;22;20424;-74
2021/03/15 04:33:45;;;;;;;11.77;4.93;;;4.00;99.90;;;;;;6275531;22;20003;-75
2021/03/15 04:36:14;;;;;;;4.90;3.95;;;3.90;99.90;;;;;;6275622;22;20000;-74
2021/03/15 04:38:42;;;;;;;6.15;4.72;;;3.90;99.90;;;;;;6274969;22;20008;-74
2021/03/15 04:41:09;;;;;;;6.25;4.20;;;3.90;99.90;;;;;;6275671;22;20023;-75
2021/03/15 04:43:37;;;;;;;12.45;5.07;;;4.00;99.90;;;;;;6275404;22;20000;-74
2021/03/15 04:46:03;;;;;;;7.32;4.82;;;4.00;99.90;;;;;;6275748;22;20015;-74
2021/03/15 04:48:30;;;;;;;10.45;5.22;;;3.90;99.90;;;;;;6274809;22;20026;-76
2021/03/15 04:51:02;;;;;;;13.43;5.57;;;3.90;99.90;;;;;;6247755;22;20000;-74
2021/03/15 04:53:30;;;;;;;12.85;6.30;;;3.90;99.90;;;;;;6248692;22;20003;-74
2021/03/15 04:55:59;;;;;;;10.38;5.85;;;3.80;99.90;;;;;;6275810;22;20071;-75
2021/03/15 04:58:27;;;;;;;9.30;5.88;;;3.80;99.90;;;;;;6275443;22;20636;-74
2021/03/15 05:00:57;;;;;;;8.75;6.05;;;3.90;99.90;;;;;;6275774;22;20000;-74
2021/03/15 05:03:24;;;;;;;8.77;5.90;;;4.00;99.90;;;;;;6275497;22;20003;-74
2021/03/15 05:05:52;;;;;;;7.63;5.72;;;4.10;99.90;;;;;;6275158;22;20003;-74
2021/03/15 05:08:42;;;;;;;12.90;5.75;;;4.10;99.90;;;;;;6275116;22;20071;-74
2021/03/15 05:11:10;;;;;;;8.13;5.70;;;4.10;99.90;;;;;;6275019;22;20031;-75
2021/03/15 05:13:38;;;;;;;8.27;5.32;;;4.10;99.90;;;;;;6275483;22;20003;-75
2021/03/15 05:16:05;;;;;;;13.88;5.45;;;4.20;99.90;;;;;;6275076;22;20008;-75
2021/03/15 05:18:32;;;;;;;15.73;5.65;;;4.10;99.90;;;;;;6275820;22;20342;-74
2021/03/15 05:20:58;;;;;;;9.65;5.78;;;4.20;99.90;;;;;;6275508;22;20000;-74
2021/03/15 05:23:24;;;;;;;12.27;5.18;;;4.20;99.90;;;;;;6275495;22;20007;-74
2021/03/15 05:25:52;;;;;;;7.78;5.40;;;4.30;99.90;;;;;;6275211;22;20509;-74
2021/03/15 05:28:19;;;;;;;10.77;4.90;;;4.20;99.90;;;;;;6274957;22;20325;-74
2021/03/15 05:30:47;;;;;;;10.93;5.93;;;4.20;99.90;;;;;;6275506;22;20014;-74
2021/03/15 05:33:15;;;;;;;6.00;4.38;;;4.20;99.90;;;;;;6275290;22;20000;-74
2021/03/15 05:35:43;;;;;;;7.50;4.50;;;4.30;99.90;;;;;;6275117;22;20455;-74
2021/03/15 05:38:10;;;;;;;9.15;5.63;;;4.30;99.90;;;;;;6274795;22;20004;-74
2021/03/15 05:40:38;;;;;;;5.60;4.85;;;4.30;99.90;;;;;;6275210;22;20010;-74
2021/03/15 05:43:26;;;;;;;12.18;6.68;;;4.40;99.90;;;;;;6275344;22;20071;-75
2021/03/15 05:46:01;;;;;;;7.28;4.95;;;4.40;99.90;;;;;;6275275;22;20069;-74
2021/03/15 05:49:04;;;;;;;7.10;5.13;;;4.50;99.90;;;;;;6248058;22;20004;-74
2021/03/15 05:51:56;;;;;;;10.63;6.68;;;4.80;99.90;;;;;;6275001;22;19996;-75
2021/03/15 05:54:43;;;;;;;19.05;6.47;;;5.30;99.90;;;;;;6274974;22;20034;-75
2021/03/15 05:57:23;;;;;;;7.88;5.60;;;5.90;99.90;;;;;;6275277;22;20053;-74
2021/03/15 05:59:58;;;;;;;11.77;5.85;;;6.50;99.90;;;;;;6275187;22;20039;-74
2021/03/15 06:02:57;;;;;;;10.90;7.75;;;7.10;99.90;;;;;;6274874;22;20006;-74
2021/03/15 06:05:28;;;;;;;10.60;7.53;;;7.60;99.90;;;;;;6274796;22;20004;-75
2021/03/15 06:08:11;;;;;;;12.93;7.57;;;8.20;99.90;;;;;;6275325;22;19996;-75
2021/03/15 06:10:55;;;;;;;8.85;4.78;;;8.80;99.90;;;;;;6275062;22;20735;-75
2021/03/15 06:13:21;;;;;;;9.70;4.40;;;9.40;99.90;;;;;;6275360;22;20026;-75
2021/03/15 06:15:48;;;;;;;10.05;5.28;;;9.60;99.90;;;;;;6275396;22;20031;-75
2021/03/15 06:18:16;;;;;;;9.15;5.50;;;9.90;99.90;;;;;;6276959;22;20094;-77
2021/03/15 06:20:47;;;;;;;9.40;5.07;;;10.30;99.90;;;;;;6276716;22;20429;-75
2021/03/15 06:23:16;;;;;;;5.90;4.05;;;10.40;99.90;;;;;;6277659;22;20003;-75
2021/03/15 06:25:43;;;;;;;8.13;3.80;;;10.50;99.90;;;;;;6277582;22;20083;-77
2021/03/15 06:28:10;;;;;;;9.50;3.97;;;10.40;99.90;;;;;;6277393;22;20007;-74
2021/03/15 06:30:36;;;;;;;7.85;3.72;;;10.70;99.90;;;;;;6276687;22;20030;-74
2021/03/15 06:33:02;;;;;;;4.22;2.97;;;11.00;99.90;;;;;;6249651;22;20298;-75
2021/03/15 06:35:47;;;;;;;8.93;4.05;;;10.90;99.90;;;;;;6276961;22;19996;-75
2021/03/15 06:38:15;;;;;;;6.25;3.88;;;11.20;99.90;;;;;;6276657;22;20004;-75
2021/03/15 06:40:43;;;;;;;7.80;3.65;;;11.80;99.90;;;;;;6276687;22;20004;-76
2021/03/15 06:43:18;;;;;;;5.00;3.47;;;12.10;99.90;;;;;;6249073;22;19999;-76
2021/03/15 06:45:50;;;;;;;10.85;3.95;;;12.20;99.90;;;;;;6276388;22;20099;-76
2021/03/15 06:48:16;;;;;;;8.48;4.22;;;12.00;99.90;;;;;;6276122;22;20023;-77
2021/03/15 06:50:42;;;;;;;8.13;3.88;;;12.10;99.90;;;;;;6274658;22;20015;-75
2021/03/15 06:53:08;;;;;;;6.47;4.20;;;12.30;99.90;;;;;;6275862;22;20400;-74
2021/03/15 06:55:34;;;;;;;9.63;4.07;;;12.70;99.90;;;;;;6271577;22;20302;-75
2021/03/15 06:58:00;;;;;;;7.75;3.42;;;13.00;99.90;;;;;;6275105;22;20018;-75
2021/03/15 07:00:28;;;;;;;8.95;3.72;;;13.10;99.90;;;;;;6275637;22;20000;-75
2021/03/15 07:03:03;;;;;;;5.78;3.00;;;13.20;99.90;;;;;;6275383;22;20000;-75
2021/03/15 07:05:30;;;;;;;5.60;3.63;;;13.30;99.90;;;;;;6275512;22;20027;-74
2021/03/15 07:08:00;;;;;;;10.43;3.80;;;13.00;99.90;;;;;;6275788;22;20003;-75
2021/03/15 07:10:33;;;;;;;7.25;3.42;;;13.00;99.90;;;;;;6248651;22;20006;-74
2021/03/15 07:13:19;;;;;;;7.20;3.78;;;13.30;99.90;;;;;;6275947;22;20007;-74
2021/03/15 07:15:48;;;;;;;6.28;3.95;;;13.60;99.90;;;;;;6275448;22;19999;-76
2021/03/15 07:18:14;;;;;;;5.22;3.75;;;13.80;99.90;;;;;;6276055;22;20007;-75
2021/03/15 07:20:47;;;;;;;10.45;4.00;;;14.00;99.90;;;;;;6276570;22;20003;-76
2021/03/15 07:23:14;;;;;;;7.45;3.20;;;14.00;99.90;;;;;;6276050;22;20038;-77
2021/03/15 07:25:40;;;;;;;7.03;3.80;;;14.50;99.90;;;;;;6275610;22;20424;-76
2021/03/15 07:28:06;;;;;;;7.93;3.58;;;14.80;99.90;;;;;;6275586;22;20015;-76
2021/03/15 07:30:35;;;;;;;5.72;3.47;;;15.20;99.90;;;;;;6276146;22;20031;-77
2021/03/15 07:33:22;;;;;;;5.20;3.47;;;15.50;99.90;;;;;;6248876;22;20310;-74
2021/03/15 07:35:49;;;;;;;5.25;2.45;;;15.70;99.90;;;;;;6275085;22;20000;-77
2021/03/15 07:38:14;;;;;;;10.05;2.28;;;15.90;99.90;;;;;;6275257;22;20023;-77
2021/03/15 07:40:43;;;;;;;6.68;3.10;;;16.10;99.90;;;;;;6275178;22;20409;-76
2021/03/15 07:43:12;;;;;;;8.60;2.70;;;16.30;99.90;;;;;;6274643;22;20004;-75
2021/03/15 07:45:48;;;;;;;9.75;3.28;;;16.50;99.90;;;;;;6246674;22;20104;-77
2021/03/15 07:48:19;;;;;;;5.18;3.03;;;16.10;99.90;;;;;;6274744;22;20038;-78
2021/03/15 07:51:00;;;;;;;4.53;3.08;;;15.30;99.90;;;;;;6273579;22;20007;-78
2021/03/15 07:53:38;;;;;;;5.30;2.88;;;15.40;99.90;;;;;;6272945;22;20447;-78
2021/03/15 07:56:06;;;;;;;4.40;3.03;;;15.70;99.90;;;;;;6274727;22;20076;-76
2021/03/15 07:58:38;;;;;;;7.15;2.97;;;15.50;99.90;;;;;;6273555;22;20008;-75
2021/03/15 08:01:05;;;;;;;4.35;2.90;;;15.40;99.90;;;;;;6274715;22;20827;-77
2021/03/15 08:03:32;;;;;;;4.35;2.58;;;15.40;99.90;;;;;;6275518;22;20015;-76
2021/03/15 08:05:59;;;;;;;5.03;3.33;;;15.70;99.90;;;;;;6244378;22;20004;-75
2021/03/15 08:08:26;;;;;;;4.40;3.13;;;16.00;99.90;;;;;;6273394;22;20114;-75
2021/03/15 08:10:53;;;;;;;6.00;2.63;;;15.90;99.90;;;;;;6274890;22;19996;-70
2021/03/15 08:13:21;;;;;;;3.83;2.50;;;16.00;99.90;;;;;;6274928;22;20386;-75
2021/03/15 08:15:49;;;;;;;6.15;3.40;;;16.00;99.90;;;;;;6274997;22;20421;-74
2021/03/15 08:18:20;;;;;;;7.53;2.58;;;16.20;99.90;;;;;;6275297;22;20016;-74
2021/03/15 08:20:49;;;;;;;12.38;2.17;;;16.40;99.90;;;;;;6274534;22;20017;-74
2021/03/15 08:23:17;;;;;;;2.30;1.60;;;16.50;99.60;;;;;;6275395;22;20007;-74
2021/03/15 08:25:44;;;;;;;2.35;1.30;;;16.50;98.00;;;;;;6274576;22;20007;-74
2021/03/15 08:28:11;;;;;;;11.30;3.05;;;16.70;98.70;;;;;;6247167;22;20315;-74
2021/03/15 08:30:42;;;;;;;11.45;3.70;;;17.40;98.40;;;;;;6274558;22;20015;-74
2021/03/15 08:33:12;;;;;;;12.55;3.80;;;17.80;99.90;;;;;;6275392;22;20004;-73
2021/03/15 08:35:38;;;;;;;5.40;3.22;;;18.50;99.50;;;;;;6274724;22;20034;-76
2021/03/15 08:38:05;;;;;;;9.75;3.30;;;19.00;98.40;;;;;;6274716;22;20007;-72
2021/03/15 08:40:40;;;;;;;9.35;3.15;;;19.50;97.10;;;;;;6275231;22;19999;-71
2021/03/15 08:43:36;;;;;;;8.45;3.75;;;19.60;96.60;;;;;;6270323;22;20106;-71
2021/03/15 08:46:05;;;;;;;6.20;2.90;;;19.80;96.30;;;;;;6220415;22;20046;-71
2021/03/15 08:48:36;;;;;;;7.82;2.97;;;20.20;94.90;;;;;;6268733;22;19999;-71
2021/03/15 08:51:11;;;;;;;5.63;2.53;;;20.60;94.10;;;;;;6272795;22;20090;-72
2021/03/15 08:53:37;;;;;;;7.60;3.10;;;21.30;93.00;;;;;;6274138;22;19999;-74
2021/03/15 08:56:20;;;;;;;8.23;2.95;;;21.70;92.90;;;;;;6274168;22;20393;-74
2021/03/15 08:58:50;;;;;;;8.82;3.40;;;22.10;91.20;;;;;;6274665;22;20004;-72
2021/03/15 09:01:45;;;;;;;8.23;3.45;;;22.40;89.90;;;;;;6247451;22;20000;-74
2021/03/15 09:04:33;;;;;;;9.65;3.35;;;22.70;88.70;;;;;;6274091;22;20008;-72
2021/03/15 09:07:04;;;;;;;6.03;3.17;;;22.70;88.10;;;;;;6274794;22;20010;-72
2021/03/15 09:09:31;;;;;;;12.90;3.05;;;22.70;87.30;;;;;;6274774;22;20030;-73
2021/03/15 09:12:02;;;;;;;9.93;3.03;;;23.00;84.70;;;;;;6274764;22;20031;-73
2021/03/15 09:14:34;;;;;;;11.30;3.13;;;22.90;82.90;;;;;;6274776;22;20003;-72
2021/03/15 09:17:15;;;;;;;9.85;3.28;;;23.00;84.60;;;;;;6274162;22;20266;-72
2021/03/15 09:19:41;;;;;;;7.97;3.30;;;23.40;82.40;;;;;;6273363;22;20043;-74
2021/03/15 09:22:19;;;;;;;6.45;2.75;;;23.60;79.70;;;;;;6273915;22;20006;-73
2021/03/15 09:25:02;;;;;;;3.75;2.30;;;23.10;78.40;;;;;;6274064;22;20011;-72
2021/03/15 09:27:33;;;;;;;6.05;2.33;;;22.70;78.20;;;;;;6274624;22;20006;-72
2021/03/15 09:30:08;;;;;;;4.60;2.55;;;22.70;77.20;;;;;;6274716;22;20122;-73
2021/03/15 09:32:38;;;;;;;7.60;3.03;;;22.80;80.40;;;;;;6273824;22;20007;-72
2021/03/15 09:35:27;;;;;;;5.43;2.80;;;22.80;78.80;;;;;;6274942;22;20004;-74
2021/03/15 09:38:12;;;;;;;9.70;3.28;;;22.50;81.50;;;;;;6274755;22;20010;-72
2021/03/15 09:40:40;;;;;;;4.82;2.75;;;22.20;79.80;;;;;;6274520;22;20010;-75
2021/03/15 09:43:06;;;;;;;8.75;2.55;;;21.30;79.60;;;;;;6274041;22;19995;-73
2021/03/15 09:45:38;;;;;;;8.40;3.03;;;21.10;80.80;;;;;;6274167;22;20035;-72
2021/03/15 09:48:19;;;;;;;3.70;2.30;;;20.70;80.00;;;;;;6274451;22;20459;-72
2021/03/15 09:50:50;;;;;;;8.43;3.33;;;20.00;81.60;;;;;;6273978;22;19996;-72
2021/03/15 09:53:20;;;;;;;4.30;2.38;;;19.70;84.10;;;;;;6274264;22;20008;-72
2021/03/15 09:55:45;;;;;;;4.80;1.95;;;19.70;83.90;;;;;;6273955;22;20103;-73
2021/03/15 09:58:17;;;;;;;7.45;2.38;;;19.60;83.70;;;;;;6273804;22;20058;-73
2021/03/15 10:00:44;;;;;;;4.88;2.28;;;19.60;82.80;;;;;;6271974;22;20004;-74
2021/03/15 10:03:20;;;;;;;9.32;2.58;;;19.30;84.50;;;;;;6242850;22;20408;-74
2021/03/15 10:05:48;;;;;;;9.50;3.28;;;19.00;85.00;;;;;;6272202;22;20004;-73
2021/03/15 10:08:14;;;;;;;6.07;3.15;;;18.80;87.10;;;;;;6273649;22;20082;-74
2021/03/15 10:10:40;;;;;;;7.35;3.08;;;18.50;88.00;;;;;;6273967;22;20004;-74
2021/03/15 10:13:07;;;;;;;7.63;2.83;;;18.30;90.00;;;;;;6273789;22;20008;-74
2021/03/15 10:15:32;;;;;;;5.72;2.95;;;18.10;90.20;;;;;;6273768;22;20026;-74
2021/03/15 10:17:59;;;;;;;9.60;3.03;;;17.90;90.70;;;;;;6274262;22;20069;-74
2021/03/15 10:20:38;;;;;;;4.85;2.40;;;17.70;91.00;;;;;;6273918;22;20325;-74
2021/03/15 10:23:15;;;;;;;9.63;4.00;;;17.70;90.20;;;;;;6274359;22;20038;-73
2021/03/15 10:25:56;;;;;;;9.05;3.28;;;17.70;90.40;;;;;;6274221;22;20003;-74
2021/03/15 10:28:23;;;;;;;5.55;2.92;;;17.80;90.10;;;;;;6222437;22;20007;-74
2021/03/15 10:30:50;;;;;;;8.68;3.30;;;17.70;90.80;;;;;;6274439;22;20077;-73
2021/03/15 10:33:20;;;;;;;8.00;2.97;;;17.70;90.70;;;;;;6246526;22;20057;-73
2021/03/15 10:35:47;;;;;;;10.57;3.20;;;17.80;91.30;;;;;;6273318;22;20000;-73
2021/03/15 10:38:14;;;;;;;5.07;3.00;;;17.70;91.10;;;;;;6273125;22;20508;-73
2021/03/15 10:40:40;;;;;;;5.85;3.13;;;17.60;91.60;;;;;;6273662;22;20048;-74
2021/03/15 10:43:07;;;;;;;7.60;2.65;;;17.60;91.30;;;;;;6247093;22;20011;-73
2021/03/15 10:45:32;;;;;;;8.75;2.45;;;17.60;91.40;;;;;;6273995;22;20020;-75
2021/03/15 10:48:06;;;;;;;19.92;2.80;;;17.50;91.30;;;;;;6273564;22;20436;-73
2021/03/15 10:50:36;;;;;;;10.63;2.83;;;17.40;91.30;;;;;;6272442;22;19995;-74
2021/03/15 10:53:17;;;;;;;5.97;2.83;;;17.50;91.30;;;;;;6273743;22;20429;-75
2021/03/15 10:55:43;;;;;;;10.98;3.15;;;17.40;90.90;;;;;;6272285;22;20053;-74
2021/03/15 10:58:11;;;;;;;6.35;2.85;;;17.10;91.60;;;;;;6273173;22;20425;-73
2021/03/15 11:00:40;;;;;;;7.85;2.80;;;16.90;91.70;;;;;;6273704;22;20008;-73
2021/03/15 11:03:19;;;;;;;14.43;2.75;;;16.80;91.60;;;;;;6274545;22;20008;-72
2021/03/15 11:05:45;;;;;;;6.18;3.00;;;16.70;92.30;;;;;;6275118;22;20000;-75
2021/03/15 11:08:21;;;;;;;4.15;3.13;;;16.50;92.10;;;;;;6274156;22;20480;-75
2021/03/15 11:10:47;;;;;;;7.55;3.10;;;16.30;92.40;;;;;;6274457;22;20004;-75
2021/03/15 11:13:19;;;;;;;5.68;2.78;;;16.30;92.50;;;;;;6275232;22;20010;-75
2021/03/15 11:15:46;;;;;;;5.80;2.78;;;16.30;92.30;;;;;;6275371;22;20336;-75
2021/03/15 11:18:19;;;;;;;5.95;2.83;;;16.30;92.40;;;;;;6276237;22;20045;-74
2021/03/15 11:20:59;;;;;;;6.00;2.58;;;16.10;92.20;;;;;;6250329;22;20004;-74
2021/03/15 11:23:44;;;;;;;9.63;2.38;;;16.10;92.50;;;;;;6276458;22;20010;-74
2021/03/15 11:26:12;;;;;;;4.97;2.50;;;16.00;92.20;;;;;;6275905;22;20495;-74
2021/03/15 11:28:40;;;;;;;4.95;2.25;;;16.00;92.60;;;;;;6275573;22;20000;-77
2021/03/15 11:31:12;;;;;;;7.72;3.08;;;15.70;91.90;;;;;;6275121;22;20003;-75
2021/03/15 11:33:37;;;;;;;;;;;15.50;92.60;;;;;;6276066;22;20006;-75
2021/03/15 11:36:15;;;;;;;7.13;2.88;;;15.30;92.90;;;;;;6275320;22;19907;-74
2021/03/15 11:38:51;;;;;;;8.10;3.03;;;15.20;93.80;;;;;;6273443;22;20019;-73
2021/03/15 11:41:23;;;;;;;7.72;2.67;;;15.10;94.50;;;;;;6275480;22;20074;-74
2021/03/15 11:43:50;;;;;;;9.85;3.58;;;14.80;94.20;;;;;;6274171;22;20306;-75
2021/03/15 11:46:16;;;;;;;7.18;3.92;;;14.60;95.20;;;;;;6247557;22;20023;-73
2021/03/15 11:48:43;;;;;;;10.25;3.92;;;14.50;95.80;;;;;;6248223;22;20004;-74
2021/03/15 11:51:11;;;;;;;7.47;4.05;;;14.50;95.70;;;;;;6274930;22;20004;-74
2021/03/15 11:53:37;;;;;;;11.10;4.88;;;14.50;96.70;;;;;;6274407;22;20488;-73
2021/03/15 11:56:03;;;;;;;8.35;4.68;;;14.30;97.20;;;;;;6272093;22;20003;-74
2021/03/15 11:58:29;;;;;;;9.85;3.90;;;14.30;97.90;;;;;;6273039;22;20046;-74
2021/03/15 12:00:55;;;;;;;10.50;2.92;;;14.30;96.90;;;;;;6273647;22;20409;-74
2021/03/15 12:03:21;;;;;;;8.65;3.10;;;14.30;94.40;;;;;;6274754;22;20418;-74
2021/03/15 12:05:47;;;;;;;6.57;2.85;;;14.30;94.20;;;;;;6275042;22;19995;-74
2021/03/15 12:08:13;;;;;;;5.55;3.22;;;14.40;95.00;;;;;;6274692;22;20078;-73
2021/03/15 12:10:41;;;;;;;6.10;2.85;;;14.30;95.50;;;;;;6274371;22;20032;-73
2021/03/15 12:13:07;;;;;;;9.98;3.90;;;14.30;95.60;;;;;;6275050;22;20086;-73
2021/03/15 12:15:32;;;;;;;9.82;2.60;;;14.40;96.00;;;;;;6274235;22;20027;-74
2021/03/15 12:17:58;;;;;;;5.95;3.05;;;14.30;95.90;;;;;;6265546;22;20007;-74
2021/03/15 12:20:26;;;;;;;13.52;3.58;;;14.40;96.00;;;;;;6274545;22;20014;-73
2021/03/15 12:22:52;;;;;;;4.53;2.58;;;14.40;94.90;;;;;;6275471;22;20007;-73
2021/03/15 12:25:18;;;;;;;9.77;3.20;;;14.40;95.00;;;;;;6274618;22;20003;-75
2021/03/15 12:27:44;;;;;;;5.13;2.38;;;14.30;94.90;;;;;;6274798;22;20086;-74
2021/03/15 12:30:10;;;;;;;8.25;2.65;;;14.20;94.30;;;;;;6275132;22;20333;-74
2021/03/15 12:32:36;;;;;;;5.72;2.00;;;14.10;93.70;;;;;;6272713;22;20498;-74
2021/03/15 12:35:02;;;;;;;5.13;2.00;;;14.00;93.30;;;;;;6274514;22;20000;-73
2021/03/15 12:37:28;;;;;;;2.95;1.77;;;13.90;93.10;;;;;;6274220;22;20030;-73
2021/03/15 12:39:56;;;;;;;5.97;2.67;;;13.80;93.20;;;;;;6273729;22;20421;-73
2021/03/15 12:42:22;;;;;;;5.45;2.30;;;13.80;93.40;;;;;;6273559;22;20000;-74
2021/03/15 12:44:48;;;;;;;8.98;2.25;;;13.70;93.70;;;;;;6273983;22;20101;-73
2021/03/15 12:47:15;;;;;;;6.47;2.85;;;13.70;93.40;;;;;;6273828;22;20007;-73
2021/03/15 12:49:41;;;;;;;10.30;3.58;;;13.70;94.00;;;;;;6272269;22;20000;-74
2021/03/15 12:52:07;;;;;;;8.02;3.00;;;13.70;93.70;;;;;;6274724;22;20007;-74
2021/03/15 12:54:34;;;;;;;7.53;2.33;;;13.60;94.00;;;;;;6275090;22;20000;-74
2021/03/15 12:56:59;;;;;;;3.45;2.10;;;13.60;94.50;;;;;;6274408;22;20003;-74
2021/03/15 12:59:25;;;;;;;10.27;2.50;;;13.60;94.10;;;;;;6273572;22;20016;-74
2021/03/15 13:01:51;;;;;;;6.07;2.88;;;13.60;94.70;;;;;;6272598;22;20122;-74
2021/03/15 13:04:17;;;;;;;4.97;2.20;;;13.70;95.00;;;;;;6274291;22;20000;-74